Data for 08/13/2007

Time Sea-Level Adjusted Pressure Absolute Pressure Temperature Relative Humidity Dew Point   
(mb) (inHg) (mb) (inHg) (C) (F) (%) (C) (F)
00:05 1020 30.12 849 25.07 22.3 72.2 20 -1.5 29.2
00:10 1020 30.12 849 25.07 22 71.6 22 -0.7 30.7
00:15 1020 30.12 849 25.07 21.1 69.9 24 -0.3 31.5
00:20 1020 30.12 849 25.07 20 68.1 25 -0.3 31.4
00:25 1020 30.12 849 25.07 19.4 66.8 26 -0.2 31.6
00:30 1020 30.12 849 25.07 19.4 66.9 25 -1.2 29.9
00:35 1020 30.12 849 25.07 20.1 68.2 24 -1.2 29.8
00:40 1020 30.12 849 25.07 20.4 68.6 24 -0.7 30.8
00:45 1020 30.12 850 25.1 20.2 68.3 23 -1.4 29.4
00:50 1020 30.12 850 25.1 20.5 68.9 23 -1.1 30
00:55 1020 30.12 850 25.1 20.5 68.9 23 -1.1 30.1
01:00 1020 30.12 850 25.1 20.6 69.1 23 -1.3 29.7
01:05 1020 30.12 850 25.1 20.9 69.6 21 -2 28.4
01:10 1020 30.12 850 25.1 21.2 70.2 22 -1.5 29.3
01:15 1020 30.12 850 25.1 20.8 69.4 22 -1.2 29.8
01:20 1021 30.15 850 25.1 20.5 69 23 -1.1 30
01:25 1021 30.15 850 25.1 20.1 68.2 24 -0.9 30.3
01:30 1021 30.15 850 25.1 19.8 67.7 24 -1.2 29.9
01:35 1021 30.15 850 25.1 19.8 67.7 28 0.9 33.7
01:40 1021 30.15 850 25.1 19.6 67.4 25 -0.8 30.5
01:45 1021 30.15 850 25.1 19.2 66.6 25 -1 30.1
01:50 1021 30.15 850 25.1 19.7 67.4 24 -1.6 29.2
01:55 1021 30.15 850 25.1 20.5 68.8 25 -0.1 31.9
02:00 1021 30.15 850 25.1 19.9 67.8 25 -0.4 31.3
02:05 1021 30.15 850 25.1 19.1 66.4 27 -0 32
02:10 1021 30.15 850 25.1 18.9 66 26 -1 30.2
02:15 1021 30.15 850 25.1 19.2 66.5 24 -1.6 29.1
02:20 1021 30.15 850 25.1 19.4 67 25 -0.7 30.8
02:25 1021 30.15 850 25.1 19.4 66.9 24 -1.4 29.5
02:30 1021 30.15 850 25.1 19.4 66.9 28 0.8 33.4
02:35 1021 30.15 850 25.1 19.7 67.4 23 -1.7 29
02:40 1021 30.15 850 25.1 19.7 67.5 26 -0.3 31.5
02:45 1021 30.15 850 25.1 19.4 66.9 25 -0.9 30.4
02:50 1021 30.15 850 25.1 18.6 65.5 27 -0.4 31.3
02:55 1021 30.15 850 25.1 17.9 64.3 28 -0.6 30.9
03:00 1021 30.15 850 25.1 17.8 64 28 -1 30.2
03:05 1021 30.15 850 25.1 17.7 63.8 28 -0.8 30.5
03:10 1021 30.15 850 25.1 17.3 63.1 31 0 32
03:15 1021 30.15 850 25.1 17.4 63.4 27 -1.5 29.3
03:20 1021 30.15 850 25.1 18 64.3 26 -1.6 29.1
03:25 1021 30.15 850 25.1 18.5 65.3 25 -1.7 28.9
03:30 1021 30.15 850 25.1 18.4 65.1 26 -1.4 29.5
03:35 1021 30.15 850 25.1 18.2 64.8 30 0.3 32.5
03:40 1021 30.15 851 25.13 18 64.3 27 -0.9 30.3
03:45 1021 30.15 850 25.1 17.4 63.2 29 -0.7 30.8
03:50 1021 30.15 851 25.13 17 62.6 28 -1.4 29.5
03:55 1021 30.15 851 25.13 16.9 62.5 31 -0.3 31.5
04:00 1021 30.15 851 25.13 16.8 62.3 29 -1.3 29.7
04:05 1021 30.15 851 25.13 16.9 62.4 29 -1 30.3
04:10 1021 30.15 851 25.13 16.9 62.4 29 -0.9 30.3
04:15 1021 30.15 851 25.13 17.1 62.7 28 -1.5 29.3
04:20 1021 30.15 851 25.13 17.1 62.7 29 -1 30.2
04:25 1021 30.15 851 25.13 17 62.5 29 -1.2 29.9
04:30 1021 30.15 850 25.1 17 62.5 29 -1.2 29.9
04:35 1021 30.15 850 25.1 16.9 62.5 29 -0.9 30.3
04:40 1021 30.15 850 25.1 16.6 61.9 30 -0.8 30.5
04:45 1021 30.15 851 25.13 16.4 61.5 31 -0.7 30.7
04:50 1021 30.15 851 25.13 16 60.9 31 -1.1 30
04:55 1021 30.15 850 25.1 16.4 61.5 30 -0.9 30.4
05:00 1021 30.15 850 25.1 16.7 62 29 -1.2 29.8
05:05 1021 30.15 850 25.1 16.7 62.1 29 -1.5 29.3
05:10 1021 30.15 850 25.1 16.8 62.2 29 -1.2 29.9
05:15 1021 30.15 850 25.1 16.5 61.7 34 0.6 33.1
05:20 1021 30.15 851 25.13 16.5 61.7 29 -1.3 29.7
05:25 1021 30.15 851 25.13 16.5 61.6 29 -1.3 29.6
05:30 1021 30.15 851 25.13 16.6 61.9 29 -1.3 29.7
05:35 1021 30.15 851 25.13 16.6 61.8 31 -0.6 30.9
05:40 1021 30.15 851 25.13 16.2 61.1 31 -0.7 30.7
05:45 1021 30.15 850 25.1 16.2 61.1 30 -1.4 29.5
05:50 1021 30.15 851 25.13 16.3 61.3 30 -1.1 30
05:55 1021 30.15 851 25.13 15.9 60.6 32 -0.8 30.5
06:00 1021 30.15 851 25.13 15.7 60.2 34 -0 31.9
06:05 1021 30.15 851 25.13 15.5 60 33 -0.8 30.6
06:10 1021 30.15 851 25.13 15.1 59.3 34 -0.6 31
06:15 1021 30.15 851 25.13 14.8 58.6 34 -0.7 30.7
06:20 1022 30.18 851 25.13 14.8 58.6 36 -0.2 31.6
06:25 1022 30.18 851 25.13 14.7 58.5 34 -0.7 30.7
06:30 1022 30.18 851 25.13 15 59 33 -1 30.2
06:35 1022 30.18 851 25.13 15.4 59.7 35 -0 31.9
06:40 1022 30.18 851 25.13 15.5 59.9 33 -0.7 30.7
06:45 1022 30.18 851 25.13 15.3 59.5 33 -0.7 30.8
06:50 1022 30.18 851 25.13 15.1 59.1 34 -0.5 31.2
06:55 1022 30.18 851 25.13 14.9 58.9 38 0.9 33.6
07:00 1022 30.18 851 25.13 15.4 59.7 32 -1.3 29.6
07:05 1022 30.18 851 25.13 15.7 60.3 35 0.3 32.6
07:10 1022 30.18 851 25.13 15.6 60.1 31 -1.5 29.3
07:15 1022 30.18 851 25.13 16 60.8 30 -1.5 29.4
07:20 1022 30.18 851 25.13 16.5 61.6 29 -1.6 29.1
07:25 1022 30.18 851 25.13 16.6 61.9 29 -1.4 29.6
07:30 1022 30.18 851 25.13 16.5 61.7 32 -0.1 31.8
07:35 1022 30.18 852 25.16 16.1 60.9 35 0.7 33.2
07:40 1022 30.18 852 25.16 15.3 59.6 45 3.6 38.4
07:45 1022 30.18 852 25.16 15 59 39 1.2 34.2
07:50 1023 30.21 852 25.16 15.2 59.3 34 -0.4 31.2
07:55 1023 30.21 852 25.16 16.5 61.7 31 -0.6 30.8
08:00 1023 30.21 852 25.16 16.3 61.4 39 2.5 36.4
08:05 1023 30.21 852 25.16 15.8 60.4 35 0.5 32.8
08:10 1023 30.21 852 25.16 15.6 60.1 39 1.8 35.2
08:15 1023 30.21 852 25.16 15.8 60.4 42 2.9 37.2
08:20 1023 30.21 852 25.16 16 60.9 32 -0.8 30.6
08:25 1023 30.21 852 25.16 17.1 62.7 35 1.5 34.6
08:30 1023 30.21 852 25.16 17.2 62.9 38 2.7 36.9
08:35 1023 30.21 852 25.16 17.5 63.4 31 0.5 32.8
08:40 1023 30.21 852 25.16 17.3 63.2 39 3.2 37.7
08:45 1023 30.21 852 25.16 17.6 63.7 31 0.5 32.9
08:50 1023 30.21 852 25.16 17.5 63.5 36 2.5 36.5
08:55 1023 30.21 852 25.16 17.6 63.8 31 0.2 32.4
09:00 1023 30.21 852 25.16 18.2 64.8 31 1.1 33.9
09:05 1023 30.21 852 25.16 18.9 66.1 32 2.2 35.9
09:10 1023 30.21 852 25.16 19.4 66.9 33 2.8 37
09:15 1023 30.21 852 25.16 19.8 67.6 29 1.5 34.8
09:20 1023 30.21 852 25.16 20.1 68.1 31 2.4 36.4
09:25 1023 30.21 852 25.16 20 67.9 30 2.2 35.9
09:30 1023 30.21 852 25.16 20.8 69.5 28 1.7 35.1
09:35 1023 30.21 852 25.16 21.4 70.5 28 2.2 35.9
09:40 1023 30.21 852 25.16 21.7 71 27 2.1 35.8
09:45 1023 30.21 852 25.16 22.2 71.9 24 1.1 34
09:50 1023 30.21 852 25.16 22.6 72.7 26 2.4 36.3
09:55 1023 30.21 852 25.16 22.4 72.3 27 2.5 36.5
10:00 1023 30.21 852 25.16 22.9 73.2 25 2.1 35.8
10:05 1023 30.21 852 25.16 23.5 74.2 28 4 39.2
10:10 1023 30.21 852 25.16 23.1 73.5 26 2.7 36.9
10:15 1023 30.21 852 25.16 22.8 73.1 27 3.1 37.6
10:20 1023 30.21 852 25.16 22.9 73.2 24 1.5 34.8
10:25 1023 30.21 852 25.16 23.5 74.4 24 1.9 35.5
10:30 1023 30.21 852 25.16 23.1 73.7 24 1.8 35.2
10:35 1023 30.21 852 25.16 23.5 74.3 23 1.5 34.7
10:40 1023 30.21 852 25.16 23.8 74.9 23 1.6 34.9
10:45 1023 30.21 852 25.16 24 75.3 22 1.5 34.8
10:50 1023 30.21 852 25.16 24.4 75.8 23 1.8 35.3
10:55 1023 30.21 852 25.16 24.3 75.8 20 0.4 32.7
11:00 1023 30.21 852 25.16 25.2 77.4 21 1.4 34.5
11:05 1023 30.21 852 25.16 25.7 78.3 18 -0.4 31.2
11:10 1023 30.21 852 25.16 25.1 77.1 22 2 35.6
11:15 1023 30.21 852 25.16 25.6 78 20 1.2 34.2
11:20 1023 30.21 852 25.16 25.9 78.6 21 2.1 35.7
11:25 1023 30.21 852 25.16 25.5 77.9 21 1.7 35
11:30 1023 30.21 852 25.16 25.5 77.8 20 1 33.7
11:35 1023 30.21 852 25.16 26.5 79.7 20 1.9 35.4
11:40 1023 30.21 852 25.16 25.7 78.3 21 1.7 35.1
11:45 1023 30.21 852 25.16 25.5 77.8 20 1.1 34.1
11:50 1022 30.18 852 25.16 26.4 79.6 21 2.7 36.9
11:55 1022 30.18 852 25.16 26.9 80.3 20 2.2 35.9
12:00 1022 30.18 852 25.16 27.1 80.7 20 2.2 35.9
12:05 1022 30.18 852 25.16 27.5 81.6 19 2.1 35.8
12:10 1022 30.18 852 25.16 27.7 81.9 18 1.5 34.7
12:15 1022 30.18 852 25.16 28.3 82.9 17 1 33.8
12:20 1022 30.18 851 25.13 27.8 82 18 1.7 35.1
12:25 1022 30.18 851 25.13 26.8 80.2 20 1.9 35.4
12:30 1022 30.18 851 25.13 27.7 81.8 18 1.7 35.1
12:35 1022 30.18 851 25.13 28.5 83.3 17 1.2 34.2
12:40 1022 30.18 851 25.13 29.1 84.3 16 0.6 33.1
12:45 1022 30.18 851 25.13 28.8 83.8 17 1.6 34.9
12:50 1022 30.18 851 25.13 28.3 82.9 19 2.5 36.6
12:55 1022 30.18 851 25.13 28.7 83.6 18 2.1 35.8
13:00 1022 30.18 851 25.13 29.2 84.6 16 1.3 34.4
13:05 1022 30.18 851 25.13 29.8 85.6 16 1.4 34.5
13:10 1022 30.18 851 25.13 30.3 86.5 16 1.7 35.1
13:15 1022 30.18 851 25.13 30.8 87.4 15 2 35.5
13:20 1022 30.18 851 25.13 30.9 87.6 15 1.9 35.4
13:25 1022 30.18 851 25.13 31 87.8 16 2.3 36.1
13:30 1021 30.15 851 25.13 31 87.8 15 1.5 34.8
13:35 1021 30.15 851 25.13 30.9 87.6 15 2 35.6
13:40 1021 30.15 851 25.13 31.8 89.2 15 2.1 35.7
13:45 1021 30.15 850 25.1 31.7 89.1 14 1.8 35.2
13:50 1021 30.15 850 25.1 31.8 89.3 15 2.1 35.7
13:55 1021 30.15 850 25.1 32.1 89.8 14 1.6 34.9
14:00 1021 30.15 850 25.1 32.5 90.4 14 1.5 34.6
14:05 1021 30.15 850 25.1 32.5 90.4 14 1.5 34.7
14:10 1021 30.15 850 25.1 31.9 89.3 14 1.3 34.3
14:15 1021 30.15 850 25.1 31.7 89 14 1.5 34.7
14:20 1021 30.15 850 25.1 32.3 90.2 13 0.4 32.8
14:25 1021 30.15 850 25.1 32.9 91.3 13 1.2 34.1
14:30 1021 30.15 850 25.1 33.1 91.5 11 -0.9 30.4
14:35 1021 30.15 850 25.1 32.8 91.1 11 -0.7 30.8
14:40 1020 30.12 850 25.1 32.9 91.3 11 -1.5 29.3
14:45 1020 30.12 850 25.1 33 91.4 10 -1.6 29.1
14:50 1020 30.12 850 25.1 33.1 91.6 10 -1.6 29.1
14:55 1020 30.12 850 25.1 33 91.4 10 -2.2 28.1
15:00 1020 30.12 850 25.1 33 91.3 10 -2.5 27.6
15:05 1020 30.12 849 25.07 33 91.4 10 -2.4 27.7
15:10 1020 30.12 849 25.07 33.3 92 8 -4.2 24.4
15:15 1020 30.12 849 25.07 33.1 91.6 9 -4.2 24.5
15:20 1020 30.12 849 25.07 33.2 91.8 9 -3.6 25.5
15:25 1020 30.12 849 25.07 33.1 91.6 8 -5.6 22
15:30 1020 30.12 849 25.07 32.8 91 9 -4 24.8
15:35 1020 30.12 849 25.07 32.6 90.7 9 -4.1 24.7
15:40 1020 30.12 849 25.07 33.9 93.1 8 -3.9 25
15:45 1020 30.12 849 25.07 34.6 94.3 8 -4.1 24.7
15:50 1020 30.12 849 25.07 34.4 93.9 8 -3.9 25
15:55 1020 30.12 849 25.07 33.3 92 9 -3.9 25
16:00 1020 30.12 849 25.07 31.9 89.4 8 -5.9 21.4
16:05 1020 30.12 849 25.07 32.1 89.7 8 -5.2 22.6
16:10 1020 30.12 849 25.07 32.7 90.9 9 -4.5 23.9
16:15 1020 30.12 849 25.07 33 91.3 8 -4.7 23.6
16:20 1020 30.12 849 25.07 32.5 90.5 8 -5.9 21.4
16:25 1020 30.12 849 25.07 32.3 90.2 8 -5.6 21.9
16:30 1019 30.09 849 25.07 33.3 91.9 8 -4.3 24.3
16:35 1019 30.09 849 25.07 34.5 94.1 8 -4.3 24.3
16:40 1019 30.09 849 25.07 34.6 94.2 8 -4 24.8
16:45 1019 30.09 849 25.07 34.4 93.9 8 -4.5 23.9
16:50 1019 30.09 849 25.07 33.9 92.9 8 -5.1 22.9
16:55 1019 30.09 848 25.04 33 91.3 8 -4.5 23.9
17:00 1019 30.09 848 25.04 33.4 92.1 8 -5.1 22.8
17:05 1019 30.09 848 25.04 34 93.1 9 -2.5 27.4
17:10 1019 30.09 848 25.04 34.3 93.7 8 -3.9 25
17:15 1019 30.09 848 25.04 33.7 92.6 9 -2.7 27.1
17:20 1019 30.09 848 25.04 33.6 92.5 9 -3.5 25.7
17:25 1019 30.09 848 25.04 33.8 92.8 8 -4.9 23.2
17:30 1019 30.09 848 25.04 33.3 92 9 -3.8 25.2
17:35 1019 30.09 848 25.04 33.2 91.8 9 -3.3 26
17:40 1019 30.09 848 25.04 32.8 91 11 -1.4 29.5
17:45 1019 30.09 848 25.04 32.5 90.5 15 2.5 36.5
17:50 1019 30.09 848 25.04 33 91.5 9 -3.7 25.3
17:55 1019 30.09 848 25.04 33.6 92.5 10 -1.5 29.2
18:00 1019 30.09 848 25.04 33.9 92.9 9 -3.3 26
18:05 1019 30.09 848 25.04 33.8 92.8 10 -1.1 30.1
18:10 1019 30.09 848 25.04 33.7 92.7 9 -3.5 25.7
18:15 1019 30.09 848 25.04 33.2 91.7 9 -3.6 25.5
18:20 1019 30.09 848 25.04 32.5 90.4 10 -2.5 27.4
18:25 1019 30.09 848 25.04 32.6 90.8 11 -0.7 30.8
18:30 1019 30.09 848 25.04 33.2 91.8 9 -4.2 24.5
18:35 1019 30.09 848 25.04 33.3 92 10 -2.2 28.1
18:40 1019 30.09 848 25.04 33.3 92 9 -2.8 27
18:45 1019 30.09 848 25.04 33.5 92.3 9 -2.7 27.2
18:50 1019 30.09 848 25.04 33.2 91.8 10 -1.5 29.2
18:55 1018 30.06 848 25.04 33 91.5 12 0.7 33.3
19:00 1018 30.06 848 25.04 32.5 90.4 10 -2.4 27.8
19:05 1018 30.06 848 25.04 32.1 89.7 11 -2.3 27.9
19:10 1018 30.06 848 25.04 31.8 89.2 9 -3.9 24.9
19:15 1018 30.06 848 25.04 31.6 88.8 10 -3.4 25.9
19:20 1018 30.06 848 25.04 31.4 88.4 17 3.9 39
19:25 1019 30.09 848 25.04 30.6 87.1 15 1.8 35.2
19:30 1019 30.09 848 25.04 30.1 86.2 14 0.4 32.8
19:35 1019 30.09 848 25.04 29.8 85.6 14 0.2 32.3
19:40 1019 30.09 848 25.04 29.4 85 15 0.5 32.9
19:45 1019 30.09 848 25.04 29.2 84.6 15 0.3 32.6
19:50 1019 30.09 848 25.04 29 84.2 15 0.4 32.7
19:55 1019 30.09 848 25.04 28.8 83.8 15 0.2 32.4
20:00 1019 30.09 848 25.04 28.6 83.5 15 0.2 32.3
20:05 1019 30.09 848 25.04 28.5 83.2 15 -0.2 31.6
20:10 1019 30.09 848 25.04 28.3 83 16 0.1 32.2
20:15 1019 30.09 848 25.04 28.2 82.7 16 0.5 32.8
20:20 1019 30.09 848 25.04 27.8 82.1 16 0.3 32.6
20:25 1019 30.09 848 25.04 27.5 81.5 18 1.4 34.5
20:30 1019 30.09 848 25.04 27.2 80.9 18 1.4 34.5
20:35 1019 30.09 848 25.04 26.9 80.4 18 1.2 34.2
20:40 1019 30.09 848 25.04 26.8 80.3 18 0.9 33.6
20:45 1019 30.09 848 25.04 26.9 80.5 18 0.5 32.9
20:50 1019 30.09 848 25.04 27.1 80.8 16 -0.2 31.7
20:55 1019 30.09 848 25.04 27.1 80.8 17 0.3 32.6
21:00 1019 30.09 848 25.04 26.9 80.4 16 -0.7 30.8
21:05 1019 30.09 848 25.04 26.8 80.3 16 -0.7 30.7
21:10 1019 30.09 849 25.07 26.7 80 16 -0.7 30.8
21:15 1019 30.09 849 25.07 26.6 79.9 17 -0 31.9
21:20 1019 30.09 849 25.07 26.5 79.6 17 -0.1 31.9
21:25 1020 30.12 849 25.07 26.4 79.5 17 -0.2 31.6
21:30 1020 30.12 849 25.07 26.4 79.4 18 0 32.1
21:35 1020 30.12 849 25.07 26.3 79.3 18 0.4 32.7
21:40 1020 30.12 849 25.07 26.1 79 18 0.2 32.4
21:45 1020 30.12 849 25.07 26.1 79 18 0.5 32.9
21:50 1020 30.12 849 25.07 26 78.8 19 0.7 33.2
21:55 1020 30.12 849 25.07 26 78.8 19 0.8 33.5
22:00 1020 30.12 849 25.07 25.8 78.5 19 1 33.8
22:05 1020 30.12 849 25.07 25.6 78.1 20 1.1 33.9
22:10 1020 30.12 849 25.07 25.5 77.8 22 2.3 36.1
22:15 1020 30.12 850 25.1 25 77 26 4.7 40.5
22:20 1020 30.12 850 25.1 23.8 74.9 24 2.5 36.4
22:25 1020 30.12 850 25.1 24 75.2 26 3.4 38.1
22:30 1021 30.15 850 25.1 24.3 75.7 23 1.9 35.4
22:35 1021 30.15 850 25.1 24.6 76.3 23 2.1 35.9
22:40 1021 30.15 850 25.1 24.9 76.9 23 2.8 37
22:45 1021 30.15 850 25.1 25 77.1 21 1.1 34
22:50 1021 30.15 850 25.1 24.6 76.2 21 0.8 33.4
22:55 1021 30.15 850 25.1 24.3 75.7 19 -0.6 30.8
23:00 1021 30.15 850 25.1 24 75.2 20 -0.1 31.9
23:05 1021 30.15 850 25.1 24 75.3 20 -0.1 31.8
23:10 1021 30.15 850 25.1 23.7 74.7 21 0.3 32.6
23:15 1021 30.15 850 25.1 23.5 74.3 18 -1.6 29.1
23:20 1021 30.15 850 25.1 24.1 75.4 20 -0.2 31.6
23:25 1021 30.15 850 25.1 23.9 75.1 19 -0.6 31
23:30 1021 30.15 850 25.1 23.7 74.6 21 0.4 32.7
23:35 1021 30.15 850 25.1 23.3 74 21 0 32
23:40 1021 30.15 850 25.1 23.3 74 21 -0.2 31.6
23:45 1021 30.15 850 25.1 23.4 74.1 23 1.1 34
23:50 1021 30.15 850 25.1 23.2 73.7 24 1.6 34.8
23:55 1021 30.15 850 25.1 22.9 73.2 24 1.7 35
24:00 1021 30.15 850 25.1 22.5 72.5 25 1.8 35.2